EGGP/LPL METAR and TAF weather

Enter ICAO airport designator
Station Type Date Time Source
EGGP METAR 2019/05/25 08:50 UTC NOAA

EGGP 250850Z 28008KT 250V310 9999 FEW015 15/09 Q1019


Station Type Date Time Source
EGGP Decoded METAR 2019/05/25 08:50 UTC NOAA

Liverpool Airport , United Kingdom (EGGP) 53-20N 002-51W
May 25, 2019 - 04:50 AM EDT / 2019.05.25 0850 UTC
Wind: from the W (280 degrees) at 9 MPH (8 KT) (direction variable):0
Visibility: greater than 7 mile(s):0
Sky conditions: mostly clear
Temperature: 59 F (15 C)
Dew Point: 48 F (9 C)
Relative Humidity: 67%
Pressure (altimeter): 30.09 in. Hg (1019 hPa)
ob: EGGP 250850Z 28008KT 250V310 9999 FEW015 15/09 Q1019
cycle: 9

Station Type Date Time Source
EGGP TAF 2019/05/25 06:20 UTC NOAA

TAF
AMD EGGP 250613Z 2506/2606 29008KT 9999 FEW012 SCT030
TEMPO 2506/2508 BKN012
TEMPO 2515/2606 8000 -RA FEW008 BKN012 PROB30
TEMPO 2515/2606 4000 RA BKN008

Example: see airport list